FVHA

Harare International Airport

Harare, Zimbabwe
METAR FVHA 221500Z 01005KT 9999 BKN045 20/15 Q1021 NOSIG
Observed Flight Rules
Apr-22 @ 15:00 UTC (7 hours ago) Visual Flight Rules
Wind Visibility Clouds
10° at 5 knots 10,000+ meters
  • Broken at 4,500' AGL
Temperatures Readings
Current 20°C / 68°F
Dewpoint 15°C / 59°F
Humidity 73%
Altimeter 30.15" Hg
Pressure 1021 hPa
Elevation 1503
METAR FVHA 221500Z 01005KT 9999 BKN045 20/15 Q1021 NOSIG
Observed Flight Rules
Apr-22 @ 15:00 UTC
(7 hours ago)
VFR
Wind Visibility
10° at 5 knots 10,000+ meters
Clouds
  • Broken at 4,500' AGL
Temperature Dewpoint
20°C / 68°F 15°C / 59°F
Humidity Altimeter Pressure
73% 30.15" Hg 1021 hPa